createdAt,value
2023-05-06T00:00:57.815Z,80.82
2023-05-06T00:03:01.474Z,80.99
2023-05-06T00:05:04.774Z,80.64
2023-05-06T00:07:07.408Z,80.62
2023-05-06T00:09:10.571Z,80.67
2023-05-06T00:11:13.721Z,80.79
2023-05-06T00:13:17.738Z,80.76
2023-05-06T00:15:20.510Z,80.63
2023-05-06T00:17:23.111Z,80.48
2023-05-06T00:19:25.736Z,80.32
2023-05-06T00:21:28.660Z,79.89
2023-05-06T00:23:31.236Z,80.10
2023-05-06T00:25:33.848Z,80.12
2023-05-06T00:27:36.428Z,80.10
2023-05-06T00:29:40.315Z,80.10
2023-05-06T00:31:42.923Z,80.06
2023-05-06T00:33:45.527Z,80.11
2023-05-06T00:35:48.246Z,79.98
2023-05-06T00:37:58.325Z,80.06
2023-05-06T00:40:01.018Z,79.88
2023-05-06T00:42:03.905Z,79.84
2023-05-06T00:44:06.781Z,79.93
2023-05-06T00:46:11.917Z,79.82
2023-05-06T00:48:15.917Z,80.14
2023-05-06T00:50:19.483Z,80.22
2023-05-06T00:52:22.137Z,80.13
2023-05-06T00:54:25.719Z,80.08
2023-05-06T00:56:28.464Z,79.67
2023-05-06T00:58:31.185Z,79.49
2023-05-06T01:00:34.729Z,79.42
2023-05-06T01:02:47.189Z,79.51
2023-05-06T01:04:51.685Z,79.42
2023-05-06T01:07:04.619Z,79.46
2023-05-06T01:09:15.698Z,79.56
2023-05-06T01:11:25.348Z,79.71
2023-05-06T01:13:35.456Z,79.71
2023-05-06T01:15:41.539Z,79.70
2023-05-06T01:17:47.165Z,79.74
2023-05-06T01:19:53.317Z,79.75
2023-05-06T01:21:58.123Z,79.52
2023-05-06T01:24:02.184Z,79.41
2023-05-06T01:26:04.783Z,79.32
2023-05-06T01:28:10.297Z,79.20
2023-05-06T01:30:14.691Z,78.77
2023-05-06T01:32:37.246Z,78.64
2023-05-06T01:34:46.743Z,78.65
2023-05-06T01:36:57.631Z,78.52
2023-05-06T01:39:10.092Z,78.43
2023-05-06T01:41:16.967Z,78.34
2023-05-06T01:43:20.367Z,78.18
2023-05-06T01:45:26.601Z,77.84
2023-05-06T01:47:29.242Z,77.55
2023-05-06T01:49:32.184Z,77.49
2023-05-06T01:51:34.930Z,77.13
2023-05-06T01:53:37.523Z,76.60
2023-05-06T01:55:41.452Z,76.08
2023-05-06T01:57:44.030Z,76.41
2023-05-06T01:59:48.565Z,76.89
2023-05-06T02:01:51.184Z,77.15
2023-05-06T02:03:53.838Z,77.46
2023-05-06T02:05:56.593Z,77.08
2023-05-06T02:07:59.173Z,76.87
2023-05-06T02:10:01.727Z,76.87
2023-05-06T02:12:06.230Z,77.06
2023-05-06T02:14:08.863Z,77.16
2023-05-06T02:16:11.562Z,77.22
2023-05-06T02:18:14.198Z,77.25
2023-05-06T02:20:16.818Z,77.14
2023-05-06T02:22:19.393Z,77.16
2023-05-06T02:24:21.942Z,77.04
2023-05-06T02:26:24.558Z,76.90
2023-05-06T02:28:28.472Z,76.64
2023-05-06T02:30:34.583Z,76.73
2023-05-06T02:32:37.353Z,77.10
2023-05-06T02:34:40.048Z,77.54
2023-05-06T02:36:42.653Z,77.93
2023-05-06T02:38:45.194Z,77.99
2023-05-06T02:40:47.808Z,77.48
2023-05-06T02:42:50.684Z,77.78
2023-05-06T02:44:54.667Z,78.14
2023-05-06T02:46:57.614Z,78.25
2023-05-06T02:49:00.348Z,78.05
2023-05-06T02:51:03.134Z,77.97
2023-05-06T02:53:05.740Z,77.83
2023-05-06T02:55:09.045Z,77.80
2023-05-06T02:57:11.827Z,77.51
2023-05-06T02:59:14.644Z,77.24
2023-05-06T03:01:18.548Z,77.26
2023-05-06T03:03:22.973Z,77.55
2023-05-06T03:05:25.556Z,77.24
2023-05-06T03:07:28.134Z,77.07
2023-05-06T03:09:30.662Z,77.18
2023-05-06T03:11:33.527Z,77.41
2023-05-06T03:13:36.182Z,77.36
2023-05-06T03:15:38.770Z,77.06
2023-05-06T03:17:42.726Z,76.88
2023-05-06T03:19:45.583Z,76.78
2023-05-06T03:21:48.200Z,76.96
2023-05-06T03:23:50.848Z,76.94
2023-05-06T03:25:53.383Z,76.91
2023-05-06T03:27:55.944Z,77.14
2023-05-06T03:29:58.487Z,77.43
2023-05-06T03:32:03.905Z,77.10
2023-05-06T03:34:07.831Z,76.29
2023-05-06T03:36:10.528Z,75.67
2023-05-06T03:38:13.129Z,75.21
2023-05-06T03:40:15.922Z,74.87
2023-05-06T03:42:18.552Z,74.55
2023-05-06T03:44:21.158Z,74.31
2023-05-06T03:46:23.748Z,74.01
2023-05-06T03:48:26.394Z,73.69
2023-05-06T03:50:30.366Z,73.74
2023-05-06T03:52:33.042Z,73.98
2023-05-06T03:54:35.620Z,74.24
2023-05-06T03:56:38.190Z,74.79
2023-05-06T03:58:40.838Z,75.24
2023-05-06T04:00:43.441Z,75.79
2023-05-06T04:02:46.097Z,75.88
2023-05-06T04:04:48.670Z,75.99
2023-05-06T04:06:52.591Z,76.17
2023-05-06T04:08:55.166Z,76.13
2023-05-06T04:10:58.761Z,76.41
2023-05-06T04:13:02.059Z,76.61
2023-05-06T04:15:05.234Z,76.41
2023-05-06T04:17:07.816Z,76.56
2023-05-06T04:19:10.383Z,76.44
2023-05-06T04:21:13.006Z,75.98
2023-05-06T04:23:17.253Z,75.95
2023-05-06T04:25:21.206Z,76.09
2023-05-06T04:27:26.539Z,76.47
2023-05-06T04:29:29.085Z,76.46
2023-05-06T04:31:32.891Z,76.35
2023-05-06T04:33:35.710Z,76.13
2023-05-06T04:35:38.454Z,76.56
2023-05-06T04:37:41.354Z,76.48
2023-05-06T04:39:47.390Z,76.88
2023-05-06T04:41:50.012Z,76.55
2023-05-06T04:43:52.589Z,76.73
2023-05-06T04:45:55.316Z,76.95
2023-05-06T04:47:57.966Z,77.13
2023-05-06T04:50:00.930Z,77.27
2023-05-06T04:52:03.511Z,77.43
2023-05-06T04:54:06.212Z,77.41
2023-05-06T04:56:10.231Z,77.44
2023-05-06T04:58:15.380Z,77.50
2023-05-06T05:00:19.099Z,77.73
2023-05-06T05:02:21.741Z,77.81
2023-05-06T05:04:24.473Z,77.77
2023-05-06T05:06:27.031Z,77.97
2023-05-06T05:08:29.709Z,77.86
2023-05-06T05:10:32.416Z,77.84
2023-05-06T05:12:36.499Z,77.94
2023-05-06T05:14:39.051Z,77.86
2023-05-06T05:16:41.808Z,77.73
2023-05-06T05:18:44.457Z,78.03
2023-05-06T05:20:50.018Z,77.29
2023-05-06T05:22:52.625Z,77.67
2023-05-06T05:24:55.173Z,77.79
2023-05-06T05:26:57.753Z,78.17
2023-05-06T05:29:01.805Z,78.53
2023-05-06T05:31:05.046Z,78.88
2023-05-06T05:33:07.969Z,79.15
2023-05-06T05:35:11.310Z,79.15
2023-05-06T05:37:14.094Z,79.37
2023-05-06T05:39:16.639Z,79.07
2023-05-06T05:41:19.179Z,78.24
2023-05-06T05:43:22.763Z,79.09
2023-05-06T05:45:26.755Z,78.33
2023-05-06T05:47:29.332Z,78.60
2023-05-06T05:49:31.884Z,79.59
2023-05-06T05:51:35.832Z,79.65
2023-05-06T05:53:38.391Z,79.57
2023-05-06T05:55:40.967Z,80.33
2023-05-06T05:57:43.531Z,80.78
2023-05-06T05:59:46.215Z,80.86
2023-05-06T06:01:50.106Z,80.96
2023-05-06T06:03:54.280Z,81.01
2023-05-06T06:05:57.071Z,80.85
2023-05-06T06:08:02.215Z,80.68
2023-05-06T06:10:07.468Z,80.39
2023-05-06T06:12:10.057Z,80.46
2023-05-06T06:14:12.619Z,80.68
2023-05-06T06:16:15.214Z,80.43
2023-05-06T06:18:19.172Z,80.39
2023-05-06T06:20:24.646Z,80.69
2023-05-06T06:22:27.319Z,80.57
2023-05-06T06:24:32.571Z,80.73
2023-05-06T06:26:35.217Z,80.60
2023-05-06T06:28:37.893Z,80.69
2023-05-06T06:30:40.476Z,80.47
2023-05-06T06:32:49.341Z,80.10
2023-05-06T06:34:53.295Z,80.21
2023-05-06T06:36:55.823Z,80.43
2023-05-06T06:38:58.380Z,80.55
2023-05-06T06:41:00.972Z,80.83
2023-05-06T06:43:03.568Z,79.53
2023-05-06T06:45:08.189Z,79.84
2023-05-06T06:47:10.887Z,78.50
2023-05-06T06:49:13.491Z,79.14
2023-05-06T06:51:17.402Z,78.73
2023-05-06T06:53:20.000Z,78.98
2023-05-06T06:55:22.872Z,79.45
2023-05-06T06:57:25.525Z,79.39
2023-05-06T06:59:28.100Z,79.79
2023-05-06T07:01:30.727Z,79.88
2023-05-06T07:03:33.358Z,79.73
2023-05-06T07:05:35.982Z,79.62
2023-05-06T07:07:39.895Z,79.48
2023-05-06T07:09:44.438Z,79.59
2023-05-06T07:11:47.299Z,79.43
2023-05-06T07:13:49.854Z,79.51
2023-05-06T07:15:52.428Z,79.68
2023-05-06T07:17:55.033Z,79.31
2023-05-06T07:19:57.611Z,79.86
2023-05-06T07:22:00.233Z,80.18
2023-05-06T07:24:04.342Z,80.35
2023-05-06T07:26:06.905Z,78.26
2023-05-06T07:28:09.502Z,78.50
2023-05-06T07:30:12.644Z,78.70
2023-05-06T07:32:15.302Z,78.50
2023-05-06T07:34:17.854Z,78.06
2023-05-06T07:36:20.479Z,78.17
2023-05-06T07:38:23.095Z,78.29
2023-05-06T07:40:27.034Z,77.84
2023-05-06T07:42:29.608Z,77.58
2023-05-06T07:44:32.187Z,77.61
2023-05-06T07:46:34.972Z,77.42
2023-05-06T07:48:37.632Z,77.66
2023-05-06T07:50:40.381Z,77.72
2023-05-06T07:52:42.974Z,77.30
2023-05-06T07:54:45.519Z,76.60
2023-05-06T07:56:49.411Z,76.10
2023-05-06T07:58:52.039Z,75.79
2023-05-06T08:00:54.858Z,75.40
2023-05-06T08:02:57.586Z,74.67
2023-05-06T08:05:00.231Z,74.56
2023-05-06T08:07:02.831Z,75.01
2023-05-06T08:09:05.417Z,75.06
2023-05-06T08:11:07.985Z,74.83
2023-05-06T08:13:12.011Z,74.28
2023-05-06T08:15:14.936Z,74.70
2023-05-06T08:17:17.615Z,74.65
2023-05-06T08:19:20.298Z,74.16
2023-05-06T08:21:22.881Z,73.79
2023-05-06T08:23:25.546Z,72.96
2023-05-06T08:25:28.110Z,71.74
2023-05-06T08:27:30.759Z,71.60
2023-05-06T08:29:34.658Z,71.89
2023-05-06T08:31:37.306Z,72.21
2023-05-06T08:33:39.885Z,71.83
2023-05-06T08:35:42.435Z,71.67
2023-05-06T08:37:45.062Z,71.56
2023-05-06T08:39:47.653Z,71.03
2023-05-06T08:41:53.334Z,70.48
2023-05-06T08:43:58.095Z,69.37
2023-05-06T08:46:02.148Z,69.31
2023-05-06T08:48:05.099Z,69.61
2023-05-06T08:50:08.826Z,68.34
2023-05-06T08:52:12.568Z,68.39
2023-05-06T08:54:16.018Z,68.51
2023-05-06T08:56:20.008Z,68.55
2023-05-06T08:58:26.083Z,68.81
2023-05-06T09:00:28.667Z,66.32
2023-05-06T09:02:32.665Z,66.52
2023-05-06T09:04:36.243Z,66.18
2023-05-06T09:06:39.667Z,65.88
2023-05-06T09:08:42.232Z,66.12
2023-05-06T09:10:46.118Z,65.55
2023-05-06T09:12:48.739Z,65.43
2023-05-06T09:14:51.944Z,66.15
2023-05-06T09:16:54.584Z,66.38
2023-05-06T09:18:59.738Z,66.78
2023-05-06T09:21:05.548Z,67.54
2023-05-06T09:23:09.393Z,68.29
2023-05-06T09:25:12.514Z,67.91
2023-05-06T09:27:15.603Z,67.13
2023-05-06T09:29:18.242Z,67.12
2023-05-06T09:31:20.839Z,65.19
2023-05-06T09:33:23.529Z,65.78
2023-05-06T09:35:29.380Z,66.57
2023-05-06T09:37:32.217Z,66.92
2023-05-06T09:39:34.774Z,66.84
2023-05-06T09:41:37.328Z,66.64
2023-05-06T09:43:42.067Z,65.49
2023-05-06T09:45:46.263Z,64.57
2023-05-06T09:47:50.025Z,64.03
2023-05-06T09:49:52.826Z,63.76
2023-05-06T09:51:57.610Z,60.82
2023-05-06T09:54:01.605Z,61.52
2023-05-06T09:56:05.300Z,61.93
2023-05-06T09:58:09.150Z,61.95
2023-05-06T10:00:13.163Z,59.90
2023-05-06T10:02:16.349Z,59.94
2023-05-06T10:04:20.102Z,59.47
2023-05-06T10:06:24.187Z,61.14
2023-05-06T10:08:28.384Z,62.09
2023-05-06T10:10:31.258Z,62.27
2023-05-06T10:12:33.912Z,62.92
2023-05-06T10:14:38.158Z,63.13
2023-05-06T10:16:42.538Z,63.67
2023-05-06T10:18:47.283Z,63.18
2023-05-06T10:20:53.513Z,62.62
2023-05-06T10:23:04.528Z,62.34
2023-05-06T10:25:16.815Z,61.99
2023-05-06T10:27:24.422Z,61.99
2023-05-06T10:29:27.191Z,60.70
2023-05-06T10:31:31.541Z,59.22
2023-05-06T10:33:34.695Z,58.99
2023-05-06T10:35:45.843Z,59.71
2023-05-06T10:37:50.148Z,58.38
2023-05-06T10:39:54.806Z,56.85
2023-05-06T10:41:59.023Z,57.49
2023-05-06T10:44:01.908Z,57.67
2023-05-06T10:46:07.023Z,57.82
2023-05-06T10:48:10.613Z,58.28
2023-05-06T10:50:21.034Z,57.75
2023-05-06T10:52:23.612Z,57.75
2023-05-06T10:54:26.199Z,57.87
2023-05-06T10:56:29.795Z,58.42
2023-05-06T10:58:37.398Z,59.38
2023-05-06T11:00:39.981Z,59.86
2023-05-06T11:02:43.493Z,60.16
2023-05-06T11:04:52.524Z,60.03
2023-05-06T11:06:55.239Z,56.60
2023-05-06T11:08:58.236Z,56.67
2023-05-06T11:11:00.852Z,56.84
2023-05-06T11:13:23.660Z,57.57
2023-05-06T11:15:38.534Z,56.24
2023-05-06T11:17:41.229Z,56.07
2023-05-06T11:19:43.877Z,55.22
2023-05-06T11:21:47.016Z,52.31
2023-05-06T11:24:10.566Z,52.84
2023-05-06T11:26:14.244Z,52.96
2023-05-06T11:28:17.146Z,51.69
2023-05-06T11:30:19.783Z,51.35
2023-05-06T11:32:26.058Z,51.60
2023-05-06T11:34:29.959Z,52.04
2023-05-06T11:36:33.515Z,53.14
2023-05-06T11:38:43.475Z,51.63
2023-05-06T11:40:46.139Z,52.03
2023-05-06T11:42:48.749Z,53.16
2023-05-06T11:44:51.655Z,53.51
2023-05-06T11:46:58.040Z,53.73
2023-05-06T11:49:02.324Z,53.72
2023-05-06T11:51:05.058Z,52.52
2023-05-06T11:53:07.660Z,52.27
2023-05-06T11:55:10.944Z,51.75
2023-05-06T11:57:14.546Z,49.27
2023-05-06T11:59:18.484Z,50.01
2023-05-06T12:01:21.044Z,50.21
2023-05-06T12:03:25.602Z,46.22
2023-05-06T12:05:29.677Z,46.24
2023-05-06T12:07:32.333Z,46.85
2023-05-06T12:09:35.980Z,47.93
2023-05-06T12:11:39.798Z,48.09
2023-05-06T12:13:42.549Z,47.54
2023-05-06T12:15:45.925Z,48.02
2023-05-06T12:17:48.927Z,47.77
2023-05-06T12:19:51.757Z,47.73
2023-05-06T12:21:55.712Z,47.16
2023-05-06T12:24:00.390Z,46.25
2023-05-06T12:26:04.402Z,47.43
2023-05-06T12:28:15.440Z,47.59
2023-05-06T12:30:30.036Z,49.16
2023-05-06T12:32:32.821Z,49.11
2023-05-06T12:34:39.093Z,49.19
2023-05-06T12:36:43.287Z,47.00
2023-05-06T12:38:54.119Z,46.98
2023-05-06T12:40:56.910Z,45.54
2023-05-06T12:42:59.640Z,46.09
2023-05-06T12:45:14.549Z,45.82
2023-05-06T12:47:22.241Z,46.37
2023-05-06T12:49:24.825Z,45.46
2023-05-06T12:51:27.693Z,46.15
2023-05-06T12:53:34.497Z,44.79
2023-05-06T12:55:39.640Z,46.61
2023-05-06T12:57:42.271Z,47.18
2023-05-06T12:59:46.111Z,45.40
2023-05-06T13:01:48.682Z,44.39
2023-05-06T13:03:52.383Z,44.91
2023-05-06T13:05:54.955Z,45.55
2023-05-06T13:07:57.514Z,43.34
2023-05-06T13:10:00.145Z,42.37
2023-05-06T13:12:04.622Z,43.43
2023-05-06T13:14:07.684Z,43.87
2023-05-06T13:16:10.781Z,42.36
2023-05-06T13:18:13.376Z,41.32
2023-05-06T13:20:16.383Z,40.18
2023-05-06T13:22:18.974Z,40.73
2023-05-06T13:24:21.874Z,41.65
2023-05-06T13:26:24.921Z,40.27
2023-05-06T13:28:28.834Z,40.84
2023-05-06T13:30:32.394Z,40.32
2023-05-06T13:32:35.303Z,40.45
2023-05-06T13:34:37.901Z,40.26
2023-05-06T13:36:40.498Z,40.20
2023-05-06T13:38:43.057Z,39.80
2023-05-06T13:40:47.609Z,39.01
2023-05-06T13:42:50.233Z,38.74
2023-05-06T13:44:54.146Z,37.70
2023-05-06T13:46:56.732Z,38.32
2023-05-06T13:48:59.364Z,37.90
2023-05-06T13:51:02.011Z,37.12
2023-05-06T13:53:05.404Z,36.70
2023-05-06T13:55:09.799Z,37.50
2023-05-06T13:57:12.509Z,36.58
2023-05-06T13:59:15.063Z,36.32
2023-05-06T14:01:19.465Z,35.05
2023-05-06T14:03:22.394Z,35.82
2023-05-06T14:05:25.100Z,35.31
2023-05-06T14:07:27.748Z,35.83
2023-05-06T14:09:30.322Z,35.85
2023-05-06T14:11:32.929Z,35.86
2023-05-06T14:13:35.499Z,34.32
2023-05-06T14:15:38.128Z,34.98
2023-05-06T14:17:42.449Z,34.76
2023-05-06T14:19:45.862Z,34.89
2023-05-06T14:21:48.454Z,35.13
2023-05-06T14:23:51.059Z,34.05
2023-05-06T14:25:53.606Z,35.07
2023-05-06T14:27:56.407Z,34.75
2023-05-06T14:29:59.054Z,34.56
2023-05-06T14:32:01.791Z,35.84
2023-05-06T14:34:05.765Z,35.69
2023-05-06T14:36:08.746Z,35.74
2023-05-06T14:38:11.665Z,33.05
2023-05-06T14:40:15.856Z,33.49
2023-05-06T14:42:18.420Z,34.28
2023-05-06T14:44:21.095Z,34.47
2023-05-06T14:46:23.779Z,33.73
2023-05-06T14:48:26.384Z,33.59
2023-05-06T14:50:30.725Z,33.61
2023-05-06T14:52:33.278Z,33.62
2023-05-06T14:54:41.896Z,34.39
2023-05-06T14:56:46.394Z,35.00
2023-05-06T14:58:48.967Z,36.37
2023-05-06T15:00:51.575Z,35.90
2023-05-06T15:02:54.232Z,35.82
2023-05-06T15:04:57.061Z,36.54
2023-05-06T15:07:01.724Z,36.48
2023-05-06T15:09:05.023Z,36.67
2023-05-06T15:11:07.974Z,36.76
2023-05-06T15:13:10.911Z,36.68
2023-05-06T15:15:13.730Z,36.98
2023-05-06T15:17:16.687Z,37.24
2023-05-06T15:19:19.241Z,36.84
2023-05-06T15:21:21.866Z,36.49
2023-05-06T15:23:25.860Z,36.42
2023-05-06T15:25:35.752Z,36.07
2023-05-06T15:27:38.954Z,35.78
2023-05-06T15:29:41.571Z,36.13
2023-05-06T15:31:45.614Z,35.73
2023-05-06T15:33:48.190Z,35.99
2023-05-06T15:35:50.763Z,36.26
2023-05-06T15:37:58.448Z,37.23
2023-05-06T15:40:02.516Z,36.59
2023-05-06T15:42:06.110Z,37.09
2023-05-06T15:44:10.488Z,37.47
2023-05-06T15:46:13.151Z,36.91
2023-05-06T15:48:15.951Z,37.99
2023-05-06T15:50:32.925Z,37.03
2023-05-06T15:52:36.624Z,37.36
2023-05-06T15:54:40.002Z,37.68
2023-05-06T15:56:45.228Z,37.96
2023-05-06T15:58:47.841Z,37.46
2023-05-06T16:00:50.408Z,38.07
2023-05-06T16:02:55.190Z,37.08
2023-05-06T16:04:58.116Z,38.17
2023-05-06T16:07:00.788Z,38.42
2023-05-06T16:09:03.459Z,38.51
2023-05-06T16:11:06.071Z,39.26
2023-05-06T16:13:09.980Z,39.12
2023-05-06T16:15:12.744Z,39.13
2023-05-06T16:17:16.481Z,38.63
2023-05-06T16:19:19.034Z,39.26
2023-05-06T16:21:21.610Z,39.24
2023-05-06T16:23:24.170Z,39.21
2023-05-06T16:25:27.004Z,40.06
2023-05-06T16:27:29.622Z,39.25
2023-05-06T16:29:33.571Z,38.99
2023-05-06T16:31:36.176Z,38.14
2023-05-06T16:33:38.976Z,38.76
2023-05-06T16:35:41.817Z,39.95
2023-05-06T16:37:44.592Z,40.27
2023-05-06T16:39:47.268Z,40.67
2023-05-06T16:41:49.865Z,40.20
2023-05-06T16:43:52.407Z,40.46
2023-05-06T16:45:56.334Z,40.51
2023-05-06T16:47:59.026Z,40.89
2023-05-06T16:50:01.650Z,41.43
2023-05-06T16:52:04.466Z,41.58
2023-05-06T16:54:07.032Z,41.52
2023-05-06T16:56:10.764Z,41.72
2023-05-06T16:58:13.344Z,41.74
2023-05-06T17:00:16.807Z,42.29
2023-05-06T17:02:21.447Z,42.96
2023-05-06T17:04:25.527Z,42.83
2023-05-06T17:06:31.222Z,42.81
2023-05-06T17:08:36.309Z,42.81
2023-05-06T17:10:39.367Z,43.30
2023-05-06T17:12:42.850Z,43.55
2023-05-06T17:14:45.550Z,43.75
2023-05-06T17:16:48.212Z,44.28
2023-05-06T17:18:52.142Z,44.83
2023-05-06T17:20:57.030Z,44.45
2023-05-06T17:22:59.937Z,44.73
2023-05-06T17:25:02.658Z,44.76
2023-05-06T17:27:05.691Z,45.25
2023-05-06T17:29:08.308Z,45.07
2023-05-06T17:31:10.928Z,44.86
2023-05-06T17:33:13.712Z,44.78
2023-05-06T17:35:17.858Z,44.67
2023-05-06T17:37:20.418Z,44.87
2023-05-06T17:39:22.991Z,44.83
2023-05-06T17:41:25.887Z,44.97
2023-05-06T17:43:28.536Z,44.83
2023-05-06T17:45:31.223Z,44.89
2023-05-06T17:47:34.256Z,45.28
2023-05-06T17:49:36.920Z,45.46
2023-05-06T17:51:40.858Z,45.53
2023-05-06T17:53:43.432Z,45.42
2023-05-06T17:55:45.977Z,45.52
2023-05-06T17:57:48.657Z,45.63
2023-05-06T17:59:51.253Z,45.96
2023-05-06T18:01:53.872Z,46.38
2023-05-06T18:03:56.666Z,46.29
2023-05-06T18:05:59.904Z,46.91
2023-05-06T18:08:04.768Z,47.22
2023-05-06T18:10:08.596Z,47.34
2023-05-06T18:12:11.165Z,47.68
2023-05-06T18:14:13.848Z,47.97
2023-05-06T18:16:16.442Z,48.08
2023-05-06T18:18:19.001Z,48.26
2023-05-06T18:20:21.552Z,48.34
2023-05-06T18:22:24.105Z,48.56
2023-05-06T18:24:28.106Z,48.68
2023-05-06T18:26:44.095Z,48.96
2023-05-06T18:28:47.704Z,49.00
2023-05-06T18:30:50.248Z,49.29
2023-05-06T18:32:54.555Z,49.83
2023-05-06T18:34:59.022Z,50.47
2023-05-06T18:37:01.578Z,50.47
2023-05-06T18:39:04.553Z,51.05
2023-05-06T18:41:09.011Z,51.40
2023-05-06T18:43:11.594Z,51.48
2023-05-06T18:45:14.302Z,51.92
2023-05-06T18:47:17.132Z,52.15
2023-05-06T18:49:19.662Z,52.00
2023-05-06T18:51:22.279Z,52.03
2023-05-06T18:53:24.909Z,52.42
2023-05-06T18:55:27.791Z,52.62
2023-05-06T18:57:31.780Z,53.55
2023-05-06T18:59:34.596Z,53.34
2023-05-06T19:01:37.243Z,53.72
2023-05-06T19:03:40.124Z,54.17
2023-05-06T19:05:42.743Z,54.74
2023-05-06T19:07:45.299Z,54.96
2023-05-06T19:09:47.849Z,55.01
2023-05-06T19:11:51.516Z,54.94
2023-05-06T19:13:55.432Z,54.99
2023-05-06T19:15:58.087Z,54.91
2023-05-06T19:18:00.680Z,55.51
2023-05-06T19:20:04.170Z,56.00
2023-05-06T19:22:06.757Z,56.22
2023-05-06T19:24:09.374Z,56.59
2023-05-06T19:26:13.161Z,56.71
2023-05-06T19:28:15.710Z,57.03
2023-05-06T19:30:19.897Z,56.48
2023-05-06T19:32:22.500Z,56.30
2023-05-06T19:34:25.458Z,56.77
2023-05-06T19:36:28.234Z,56.89
2023-05-06T19:38:30.948Z,56.88
2023-05-06T19:40:34.792Z,56.67
2023-05-06T19:42:37.365Z,56.85
2023-05-06T19:44:39.951Z,57.09
2023-05-06T19:46:43.868Z,57.68
2023-05-06T19:48:46.907Z,58.22
2023-05-06T19:50:49.460Z,58.31
2023-05-06T19:52:52.043Z,58.09
2023-05-06T19:54:54.585Z,58.03
2023-05-06T19:56:57.288Z,58.09
2023-05-06T19:58:59.876Z,58.14
2023-05-06T20:01:02.509Z,58.29
2023-05-06T20:03:06.518Z,58.70
2023-05-06T20:05:10.020Z,58.60
2023-05-06T20:07:13.522Z,57.71
2023-05-06T20:09:16.134Z,58.13
2023-05-06T20:11:18.708Z,58.34
2023-05-06T20:13:21.409Z,58.62
2023-05-06T20:15:24.063Z,58.98
2023-05-06T20:17:27.112Z,59.44
2023-05-06T20:19:31.304Z,59.59
2023-05-06T20:21:33.908Z,59.43
2023-05-06T20:23:36.462Z,59.51
2023-05-06T20:25:38.996Z,59.31
2023-05-06T20:27:41.554Z,59.60
2023-05-06T20:29:44.128Z,59.67
2023-05-06T20:31:47.097Z,60.08
2023-05-06T20:33:49.762Z,60.36
2023-05-06T20:35:53.667Z,60.67
2023-05-06T20:37:56.445Z,60.74
2023-05-06T20:40:02.439Z,60.90
2023-05-06T20:42:05.205Z,60.74
2023-05-06T20:44:07.759Z,60.84
2023-05-06T20:46:10.336Z,60.91
2023-05-06T20:48:14.865Z,61.03
2023-05-06T20:50:18.665Z,61.12
2023-05-06T20:52:22.664Z,60.79
2023-05-06T20:54:25.356Z,60.70
2023-05-06T20:56:28.641Z,61.14
2023-05-06T20:58:31.188Z,61.57
2023-05-06T21:00:33.763Z,61.79
2023-05-06T21:02:41.026Z,61.69
2023-05-06T21:04:44.382Z,61.92
2023-05-06T21:06:46.944Z,61.88
2023-05-06T21:08:51.801Z,61.29
2023-05-06T21:10:54.456Z,61.04
2023-05-06T21:12:57.037Z,61.42
2023-05-06T21:14:59.671Z,61.77
2023-05-06T21:17:02.339Z,61.77
2023-05-06T21:19:04.981Z,61.57
2023-05-06T21:21:07.550Z,61.85
2023-05-06T21:23:10.172Z,61.46
2023-05-06T21:25:14.277Z,61.73
2023-05-06T21:27:16.993Z,62.03
2023-05-06T21:29:20.581Z,61.86
2023-05-06T21:31:25.141Z,60.88
2023-05-06T21:33:27.776Z,61.70
2023-05-06T21:35:31.076Z,61.74
2023-05-06T21:37:35.582Z,62.11
2023-05-06T21:39:38.173Z,62.50
2023-05-06T21:41:42.116Z,62.57
2023-05-06T21:43:44.687Z,62.73
2023-05-06T21:45:47.227Z,62.18
2023-05-06T21:47:50.429Z,62.41
2023-05-06T21:49:53.033Z,62.24
2023-05-06T21:51:56.225Z,62.64
2023-05-06T21:53:59.190Z,62.78
2023-05-06T21:56:01.753Z,62.54
2023-05-06T21:58:05.982Z,62.89
2023-05-06T22:00:12.106Z,62.96
2023-05-06T22:02:15.981Z,62.90
2023-05-06T22:04:20.040Z,63.00
2023-05-06T22:06:23.239Z,63.05
2023-05-06T22:08:25.997Z,63.01
2023-05-06T22:10:28.664Z,63.04
2023-05-06T22:12:32.100Z,63.09
2023-05-06T22:14:41.065Z,63.29
2023-05-06T22:16:45.722Z,63.19
2023-05-06T22:18:48.565Z,63.18
2023-05-06T22:20:52.467Z,63.40
2023-05-06T22:22:55.118Z,63.46
2023-05-06T22:24:57.665Z,63.39
2023-05-06T22:27:00.645Z,63.78
2023-05-06T22:29:03.221Z,63.50
2023-05-06T22:31:07.197Z,63.54
2023-05-06T22:33:09.774Z,63.44
2023-05-06T22:35:12.505Z,63.45
2023-05-06T22:37:16.169Z,63.41
2023-05-06T22:39:18.805Z,63.55
2023-05-06T22:41:21.429Z,63.49
2023-05-06T22:43:24.064Z,63.22
2023-05-06T22:45:26.843Z,63.33
2023-05-06T22:47:31.087Z,63.29
2023-05-06T22:49:33.690Z,63.35
2023-05-06T22:51:36.446Z,63.13
2023-05-06T22:53:39.073Z,62.67
2023-05-06T22:55:41.735Z,62.99
2023-05-06T22:57:44.776Z,63.29
2023-05-06T22:59:47.365Z,62.98
2023-05-06T23:01:49.977Z,63.46
2023-05-06T23:03:53.980Z,63.25
2023-05-06T23:05:56.679Z,63.08
2023-05-06T23:07:59.219Z,63.16
2023-05-06T23:10:02.042Z,63.27
2023-05-06T23:12:05.044Z,63.36
2023-05-06T23:14:08.152Z,63.37
2023-05-06T23:16:10.837Z,63.31
2023-05-06T23:18:13.493Z,63.48
2023-05-06T23:20:17.583Z,63.63
2023-05-06T23:22:20.148Z,63.77
2023-05-06T23:24:22.696Z,63.54
2023-05-06T23:26:25.334Z,63.69
2023-05-06T23:28:28.527Z,63.55
2023-05-06T23:30:31.315Z,63.82
2023-05-06T23:32:37.211Z,64.02
2023-05-06T23:34:39.803Z,64.07
2023-05-06T23:36:43.773Z,64.12
2023-05-06T23:38:48.855Z,63.61
2023-05-06T23:40:51.520Z,63.92
2023-05-06T23:42:54.095Z,64.11
2023-05-06T23:44:56.660Z,63.88
2023-05-06T23:46:59.223Z,64.27
2023-05-06T23:49:01.774Z,64.37
2023-05-06T23:51:04.564Z,64.30
2023-05-06T23:53:08.503Z,64.64
2023-05-06T23:55:11.623Z,64.76
2023-05-06T23:57:14.416Z,64.59
2023-05-06T23:59:17.406Z,64.38
